Time;durP1;ratioP1;P1;durP2;ratioP2;P2;SDS_P1;SDS_P2;PMS_P1;PMS_P2;Temp;Humidity;BMP_temperature;BMP_pressure;BME280_temperature;BME280_humidity;BME280_pressure;Samples;Min_cycle;Max_cycle;Signal;HPM_P1;HPM_P2
2024/01/18 00:00:33;;;;;;;64.63;18.55;;;2.50;99.90;;;;;;4933678;28;20050;-71
2024/01/18 00:02:59;;;;;;;51.55;18.23;;;2.50;99.90;;;;;;4932509;28;20035;-71
2024/01/18 00:05:25;;;;;;;88.70;19.80;;;2.60;99.90;;;;;;4930310;28;20066;-71
2024/01/18 00:07:51;;;;;;;51.92;19.20;;;2.60;99.90;;;;;;4934645;28;20106;-66
2024/01/18 00:10:16;;;;;;;42.17;18.88;;;2.60;99.90;;;;;;4933395;28;20139;-66
2024/01/18 00:12:42;;;;;;;43.08;17.90;;;2.50;99.90;;;;;;4937557;28;20038;-66
2024/01/18 00:15:08;;;;;;;59.72;17.70;;;2.60;99.90;;;;;;4935245;28;20500;-66
2024/01/18 00:17:34;;;;;;;46.70;19.52;;;2.60;99.90;;;;;;4937293;28;20037;-65
2024/01/18 00:20:00;;;;;;;60.03;18.98;;;2.60;99.90;;;;;;4933688;28;20031;-66
2024/01/18 00:22:25;;;;;;;55.08;19.50;;;2.60;99.90;;;;;;4930603;28;20027;-66
2024/01/18 00:24:51;;;;;;;51.10;18.10;;;2.60;99.90;;;;;;4931993;28;20031;-66
2024/01/18 00:27:17;;;;;;;60.35;18.67;;;2.60;99.90;;;;;;4921846;29;20531;-66
2024/01/18 00:29:42;;;;;;;48.88;19.83;;;2.60;99.90;;;;;;4921062;29;20039;-66
2024/01/18 00:32:08;;;;;;;57.15;18.77;;;2.60;99.90;;;;;;4927971;28;20030;-66
2024/01/18 00:34:33;;;;;;;54.75;18.40;;;2.60;99.90;;;;;;4932809;28;20063;-65
2024/01/18 00:36:59;;;;;;;47.78;18.52;;;2.70;99.90;;;;;;4936349;28;20047;-65
2024/01/18 00:39:25;;;;;;;73.95;19.75;;;2.70;99.90;;;;;;4935504;28;20511;-65
2024/01/18 00:41:50;;;;;;;38.58;17.98;;;2.70;99.90;;;;;;4934473;28;20035;-65
2024/01/18 00:44:16;;;;;;;43.10;17.63;;;2.70;99.90;;;;;;4935829;28;20026;-65
2024/01/18 00:46:41;;;;;;;68.97;19.05;;;2.70;99.90;;;;;;4935484;28;20181;-65
2024/01/18 00:49:07;;;;;;;72.90;20.23;;;2.70;99.90;;;;;;4930964;28;20038;-65
2024/01/18 00:51:33;;;;;;;68.60;19.27;;;2.60;99.90;;;;;;4935603;28;20108;-65
2024/01/18 00:53:58;;;;;;;58.67;20.65;;;2.60;99.90;;;;;;4937403;28;20035;-66
2024/01/18 00:56:24;;;;;;;48.75;19.40;;;2.60;99.90;;;;;;4928807;28;20408;-65
2024/01/18 00:58:50;;;;;;;48.55;18.20;;;2.60;99.90;;;;;;4934687;28;20182;-66
2024/01/18 01:01:16;;;;;;;98.20;19.30;;;2.60;99.90;;;;;;4935161;28;20034;-66
2024/01/18 01:03:42;;;;;;;80.90;19.92;;;2.60;99.90;;;;;;4938019;28;20039;-65
2024/01/18 01:06:11;;;;;;;56.75;18.15;;;2.60;99.90;;;;;;4933251;28;20135;-65
2024/01/18 01:08:38;;;;;;;45.30;17.35;;;2.60;99.90;;;;;;4934046;28;20336;-65
2024/01/18 01:11:04;;;;;;;46.70;16.85;;;2.60;99.90;;;;;;4933775;28;20027;-66
2024/01/18 01:13:30;;;;;;;51.78;17.10;;;2.60;99.90;;;;;;4935580;28;20832;-65
2024/01/18 01:15:56;;;;;;;34.10;18.25;;;2.60;99.90;;;;;;4927772;28;20559;-66
2024/01/18 01:18:21;;;;;;;42.15;16.63;;;2.60;99.90;;;;;;4930977;28;20494;-66
2024/01/18 01:20:47;;;;;;;51.85;18.75;;;2.70;99.90;;;;;;4932186;28;20823;-65
2024/01/18 01:23:13;;;;;;;41.20;17.38;;;2.60;99.90;;;;;;4934452;28;20038;-65
2024/01/18 01:25:39;;;;;;;50.70;18.00;;;2.60;99.90;;;;;;4932425;28;20135;-66
2024/01/18 01:28:05;;;;;;;42.65;18.15;;;2.50;99.90;;;;;;4935058;28;20050;-66
2024/01/18 01:30:31;;;;;;;47.80;18.70;;;2.50;99.90;;;;;;4935294;28;20027;-66
2024/01/18 01:32:57;;;;;;;54.42;17.60;;;2.60;99.90;;;;;;4937489;28;20046;-66
2024/01/18 01:35:22;;;;;;;50.42;18.65;;;2.60;99.90;;;;;;4932367;28;20051;-66
2024/01/18 01:37:48;;;;;;;43.78;17.90;;;2.70;99.90;;;;;;4932917;28;20432;-66
2024/01/18 01:40:14;;;;;;;58.88;17.75;;;2.60;99.90;;;;;;4930905;28;20097;-67
2024/01/18 01:42:39;;;;;;;59.50;18.63;;;2.60;99.90;;;;;;4928269;28;20102;-67
2024/01/18 01:45:06;;;;;;;54.13;18.92;;;2.60;99.90;;;;;;4928401;28;20039;-67
2024/01/18 01:47:31;;;;;;;58.65;18.50;;;2.60;99.90;;;;;;4913651;29;20032;-67
2024/01/18 01:49:58;;;;;;;36.42;16.92;;;2.60;99.90;;;;;;4929380;28;20050;-66
2024/01/18 01:52:25;;;;;;;90.15;21.13;;;2.60;99.90;;;;;;4930020;28;20035;-66
2024/01/18 01:54:51;;;;;;;53.42;17.90;;;2.60;99.90;;;;;;4929326;28;20415;-67
2024/01/18 01:57:18;;;;;;;70.20;18.77;;;2.60;99.90;;;;;;4929904;28;20037;-70
2024/01/18 01:59:44;;;;;;;48.85;17.23;;;2.60;99.90;;;;;;4929901;28;20031;-70
2024/01/18 02:02:12;;;;;;;61.22;18.10;;;2.70;99.90;;;;;;4933397;28;20547;-69
2024/01/18 02:04:37;;;;;;;49.15;17.17;;;2.60;99.90;;;;;;4932385;28;20063;-69
2024/01/18 02:07:04;;;;;;;71.57;18.95;;;2.60;99.90;;;;;;4926453;28;20047;-70
2024/01/18 02:09:30;;;;;;;55.33;18.42;;;2.60;99.90;;;;;;4929356;28;20136;-69
2024/01/18 02:11:56;;;;;;;82.85;21.35;;;2.60;99.90;;;;;;4930404;28;20039;-70
2024/01/18 02:14:22;;;;;;;58.65;23.90;;;2.60;99.90;;;;;;4928490;28;20066;-70
2024/01/18 02:16:48;;;;;;;47.88;18.88;;;2.60;99.90;;;;;;4925420;28;20490;-69
2024/01/18 02:19:14;;;;;;;61.63;20.58;;;2.60;99.90;;;;;;4923872;28;20323;-70
2024/01/18 02:21:40;;;;;;;48.60;18.23;;;2.60;99.90;;;;;;4930362;28;20031;-70
2024/01/18 02:24:16;;;;;;;61.05;20.38;;;2.60;99.90;;;;;;4929272;28;20076;-69
2024/01/18 02:26:41;;;;;;;82.97;20.40;;;2.50;99.90;;;;;;4930165;28;20051;-69
2024/01/18 02:29:07;;;;;;;51.97;18.80;;;2.50;99.90;;;;;;4935508;28;20062;-69
2024/01/18 02:31:32;;;;;;;56.10;18.60;;;2.50;99.90;;;;;;4932851;28;20028;-69
2024/01/18 02:33:58;;;;;;;73.45;19.45;;;2.60;99.90;;;;;;4927746;28;20039;-67
2024/01/18 02:36:24;;;;;;;44.58;18.08;;;2.60;99.90;;;;;;4932677;28;20106;-67
2024/01/18 02:38:52;;;;;;;76.10;20.02;;;2.60;99.90;;;;;;4933839;28;20046;-67
2024/01/18 02:41:18;;;;;;;73.32;22.90;;;2.60;99.90;;;;;;4933045;28;20075;-67
2024/01/18 02:43:44;;;;;;;39.83;18.33;;;2.60;99.90;;;;;;4934636;28;20031;-67
2024/01/18 02:46:10;;;;;;;52.92;18.85;;;2.60;99.90;;;;;;4932150;28;20579;-67
2024/01/18 02:48:36;;;;;;;48.65;17.77;;;2.70;99.90;;;;;;4933666;28;20031;-67
2024/01/18 02:51:01;;;;;;;43.80;16.92;;;2.70;99.90;;;;;;4927484;28;20062;-66
2024/01/18 02:53:27;;;;;;;52.15;17.92;;;2.70;99.90;;;;;;4934464;28;20039;-69
2024/01/18 02:55:52;;;;;;;49.80;18.08;;;2.70;99.90;;;;;;4932368;28;20130;-69
2024/01/18 02:58:18;;;;;;;44.95;16.80;;;2.70;99.90;;;;;;4932230;28;20038;-69
2024/01/18 03:00:44;;;;;;;63.88;18.63;;;2.70;99.90;;;;;;4932817;28;20411;-69
2024/01/18 03:03:09;;;;;;;59.60;18.67;;;2.60;99.90;;;;;;4929440;28;20056;-69
2024/01/18 03:05:35;;;;;;;42.45;17.20;;;2.60;99.90;;;;;;4933652;28;20412;-69
2024/01/18 03:08:01;;;;;;;36.42;17.48;;;2.60;99.90;;;;;;4929941;28;20332;-69
2024/01/18 03:10:26;;;;;;;66.25;15.98;;;2.60;99.90;;;;;;4931462;28;20035;-69
2024/01/18 03:12:52;;;;;;;35.65;17.73;;;2.70;99.90;;;;;;4932628;28;20051;-68
2024/01/18 03:15:18;;;;;;;58.13;17.15;;;2.70;99.90;;;;;;4933400;28;20055;-69
2024/01/18 03:17:44;;;;;;;50.47;17.40;;;2.80;99.90;;;;;;4929370;28;20055;-69
2024/01/18 03:20:10;;;;;;;44.50;18.42;;;2.70;99.90;;;;;;4928641;28;20459;-69
2024/01/18 03:22:40;;;;;;;64.88;18.52;;;2.60;99.90;;;;;;4927438;28;20046;-68
2024/01/18 03:25:06;;;;;;;41.53;19.55;;;2.70;99.90;;;;;;4924450;28;20039;-68
2024/01/18 03:27:32;;;;;;;60.60;19.17;;;2.60;99.90;;;;;;4929368;28;20035;-69
2024/01/18 03:29:57;;;;;;;62.83;18.52;;;2.70;99.90;;;;;;4927991;28;20046;-69
2024/01/18 03:32:23;;;;;;;49.72;19.30;;;2.70;99.90;;;;;;4926875;28;20086;-69
2024/01/18 03:34:49;;;;;;;72.53;20.45;;;2.60;99.90;;;;;;4929873;28;20043;-69
2024/01/18 03:37:15;;;;;;;59.30;20.20;;;2.70;99.90;;;;;;4927735;28;20565;-68
2024/01/18 03:39:40;;;;;;;59.92;18.77;;;2.70;99.90;;;;;;4922168;28;20039;-70
2024/01/18 03:42:06;;;;;;;71.63;18.63;;;2.70;99.90;;;;;;4925533;28;20039;-69
2024/01/18 03:44:34;;;;;;;41.83;17.15;;;2.60;99.90;;;;;;4925207;28;21512;-69
2024/01/18 03:47:00;;;;;;;38.40;18.08;;;2.50;99.90;;;;;;4927798;28;20027;-69
2024/01/18 03:49:26;;;;;;;56.88;18.33;;;2.60;99.90;;;;;;4926638;28;20511;-69
2024/01/18 03:51:51;;;;;;;43.35;18.70;;;2.70;99.90;;;;;;4930048;28;20115;-69
2024/01/18 03:54:18;;;;;;;58.97;18.80;;;2.70;99.90;;;;;;4923787;28;20595;-68
2024/01/18 03:56:43;;;;;;;71.10;20.27;;;2.80;99.90;;;;;;4923153;28;20079;-69
2024/01/18 03:59:13;;;;;;;41.10;18.17;;;2.80;99.90;;;;;;4927319;28;21836;-69
2024/01/18 04:01:39;;;;;;;58.45;19.85;;;2.90;99.90;;;;;;4929053;28;20314;-67
2024/01/18 04:04:05;;;;;;;36.90;18.05;;;2.90;99.90;;;;;;4929527;28;20039;-67
2024/01/18 04:06:30;;;;;;;60.67;20.98;;;2.90;99.90;;;;;;4929847;28;20040;-67
2024/01/18 04:08:56;;;;;;;62.42;28.88;;;2.90;99.90;;;;;;4926625;28;20059;-67
2024/01/18 04:11:21;;;;;;;42.15;20.95;;;2.90;99.90;;;;;;4925025;28;20059;-67
2024/01/18 04:13:47;;;;;;;59.50;25.80;;;2.90;99.90;;;;;;4930980;28;20053;-67
2024/01/18 04:16:13;;;;;;;55.78;24.05;;;2.90;99.90;;;;;;4935045;28;20110;-68
2024/01/18 04:18:39;;;;;;;44.78;22.38;;;2.90;99.90;;;;;;4934354;28;20031;-67
2024/01/18 04:21:04;;;;;;;41.75;19.48;;;2.90;99.90;;;;;;4931166;28;20066;-67
2024/01/18 04:23:30;;;;;;;36.03;17.30;;;2.90;99.90;;;;;;4935434;28;20031;-67
2024/01/18 04:25:56;;;;;;;40.60;19.58;;;3.00;99.90;;;;;;4936578;28;20062;-67
2024/01/18 04:28:22;;;;;;;38.53;18.98;;;2.80;99.90;;;;;;4930969;28;20555;-67
2024/01/18 04:30:48;;;;;;;30.52;16.90;;;2.80;99.90;;;;;;4936896;28;20054;-68
2024/01/18 04:33:13;;;;;;;39.13;17.40;;;2.90;99.90;;;;;;4933746;28;20042;-67
2024/01/18 04:35:39;;;;;;;35.65;17.17;;;2.90;99.90;;;;;;4933227;28;20047;-67
2024/01/18 04:38:06;;;;;;;36.67;17.73;;;2.90;99.90;;;;;;4913577;28;20031;-67
2024/01/18 04:40:33;;;;;;;43.05;21.73;;;3.00;99.90;;;;;;4932528;28;20064;-67
2024/01/18 04:42:58;;;;;;;41.30;19.83;;;3.00;99.90;;;;;;4932574;28;20019;-67
2024/01/18 04:45:24;;;;;;;82.93;37.83;;;3.00;99.90;;;;;;4933311;28;20074;-68
2024/01/18 04:47:53;;;;;;;69.47;32.72;;;3.10;99.90;;;;;;4931427;28;20086;-68
2024/01/18 04:50:24;;;;;;;63.45;30.38;;;3.10;99.90;;;;;;4931914;28;20073;-67
2024/01/18 04:52:50;;;;;;;56.60;29.02;;;3.10;99.90;;;;;;4933900;28;20091;-67
2024/01/18 04:55:34;;;;;;;53.33;26.10;;;3.10;99.90;;;;;;4931050;28;20126;-68
2024/01/18 04:58:00;;;;;;;49.15;22.30;;;3.10;99.90;;;;;;4934585;28;20173;-68
2024/01/18 05:00:26;;;;;;;50.47;24.00;;;3.10;99.90;;;;;;4933221;28;20363;-68
2024/01/18 05:02:51;;;;;;;50.45;25.48;;;3.10;99.90;;;;;;4933606;28;20074;-68
2024/01/18 05:05:17;;;;;;;44.35;22.42;;;3.10;99.90;;;;;;4933705;28;20258;-68
2024/01/18 05:07:43;;;;;;;52.83;24.88;;;3.10;99.90;;;;;;4932483;28;20056;-68
2024/01/18 05:10:09;;;;;;;49.60;24.00;;;3.10;99.90;;;;;;4933054;28;20090;-68
2024/01/18 05:12:35;;;;;;;66.55;30.83;;;3.20;99.90;;;;;;4934708;28;20142;-68
2024/01/18 05:15:02;;;;;;;58.78;28.20;;;3.20;99.90;;;;;;4938237;28;20082;-67
2024/01/18 05:17:34;;;;;;;64.53;28.77;;;3.20;99.90;;;;;;4950431;28;20054;-65
2024/01/18 05:20:04;;;;;;;78.80;36.15;;;3.20;99.90;;;;;;4935558;28;20035;-65
2024/01/18 05:22:31;;;;;;;94.32;45.47;;;3.20;99.90;;;;;;4933545;28;20058;-65
2024/01/18 05:24:58;;;;;;;85.63;40.50;;;3.20;99.90;;;;;;4933909;28;20134;-65
2024/01/18 05:27:25;;;;;;;61.85;33.40;;;3.20;99.90;;;;;;4936682;28;20178;-65
2024/01/18 05:29:51;;;;;;;61.33;34.22;;;3.20;99.90;;;;;;4934888;28;20340;-65
2024/01/18 05:32:19;;;;;;;62.15;34.67;;;3.30;99.90;;;;;;4935329;28;20121;-65
2024/01/18 05:34:44;;;;;;;65.63;34.58;;;3.30;99.90;;;;;;4929845;28;20338;-65
2024/01/18 05:37:10;;;;;;;57.17;30.65;;;3.30;99.90;;;;;;4933023;28;20037;-66
2024/01/18 05:39:35;;;;;;;47.28;27.75;;;3.30;99.90;;;;;;4933739;28;20046;-65
2024/01/18 05:42:02;;;;;;;41.22;22.08;;;3.20;99.90;;;;;;4929791;28;20147;-66
2024/01/18 05:44:28;;;;;;;37.25;21.52;;;3.20;99.90;;;;;;4934956;28;20043;-66
2024/01/18 05:46:54;;;;;;;39.95;22.45;;;3.20;99.90;;;;;;4935017;28;20027;-66
2024/01/18 05:49:19;;;;;;;34.25;20.30;;;3.20;99.90;;;;;;4936456;28;20366;-66
2024/01/18 05:51:45;;;;;;;39.20;24.00;;;3.20;99.90;;;;;;4930575;28;20086;-66
2024/01/18 05:54:10;;;;;;;35.15;20.25;;;3.30;99.90;;;;;;4933594;28;20202;-65
2024/01/18 05:56:36;;;;;;;29.67;16.40;;;3.30;99.90;;;;;;4931651;28;20121;-67
2024/01/18 05:59:01;;;;;;;30.13;17.80;;;3.30;99.90;;;;;;4936197;28;20027;-67
2024/01/18 06:01:27;;;;;;;36.90;18.83;;;3.20;99.90;;;;;;4929953;28;20479;-67
2024/01/18 06:03:52;;;;;;;30.13;18.30;;;3.30;99.90;;;;;;4921639;28;20734;-67
2024/01/18 06:06:18;;;;;;;36.85;22.55;;;3.20;99.90;;;;;;4933461;28;20031;-67
2024/01/18 06:08:44;;;;;;;34.40;20.23;;;3.30;99.90;;;;;;4935876;28;20051;-68
2024/01/18 06:11:09;;;;;;;26.83;16.08;;;3.30;99.90;;;;;;4931696;28;21005;-68
2024/01/18 06:13:39;;;;;;;28.02;14.95;;;3.20;99.90;;;;;;4933132;28;20498;-67
2024/01/18 06:16:06;;;;;;;28.13;15.35;;;3.30;99.90;;;;;;4930445;28;20054;-65
2024/01/18 06:18:32;;;;;;;27.80;15.32;;;3.20;99.90;;;;;;4933138;28;20055;-65
2024/01/18 06:20:58;;;;;;;29.20;16.25;;;3.20;99.90;;;;;;4929896;28;20066;-65
2024/01/18 06:23:23;;;;;;;30.40;17.20;;;3.20;99.90;;;;;;4928392;28;20505;-67
2024/01/18 06:25:49;;;;;;;29.98;17.15;;;3.20;99.90;;;;;;4934120;28;20031;-65
2024/01/18 06:28:14;;;;;;;27.20;15.35;;;3.20;99.90;;;;;;4931756;28;21053;-66
2024/01/18 06:30:43;;;;;;;23.23;13.32;;;3.10;99.90;;;;;;4931714;28;20047;-65
2024/01/18 06:33:11;;;;;;;21.25;13.05;;;3.10;99.90;;;;;;4930549;28;20709;-66
2024/01/18 06:35:36;;;;;;;20.35;12.77;;;3.10;99.90;;;;;;4931707;28;20082;-66
2024/01/18 06:38:02;;;;;;;17.63;11.25;;;3.10;99.90;;;;;;4926560;28;20043;-65
2024/01/18 06:40:28;;;;;;;21.33;12.70;;;3.10;99.90;;;;;;4924125;28;21415;-66
2024/01/18 06:42:53;;;;;;;21.67;11.10;;;3.10;99.90;;;;;;4927509;28;20031;-65
2024/01/18 06:45:19;;;;;;;15.68;10.30;;;3.10;99.90;;;;;;4925411;28;20028;-66
2024/01/18 06:47:44;;;;;;;17.13;11.55;;;3.20;99.90;;;;;;4932939;28;20755;-66
2024/01/18 06:50:10;;;;;;;58.25;48.28;;;3.20;99.90;;;;;;4933960;28;20035;-66
2024/01/18 06:52:36;;;;;;;22.80;15.75;;;3.30;99.90;;;;;;4936329;28;20055;-66
2024/01/18 06:55:02;;;;;;;18.92;12.23;;;3.40;99.90;;;;;;4934582;28;20039;-66
2024/01/18 06:57:28;;;;;;;15.88;11.05;;;3.30;99.90;;;;;;4936971;28;20649;-66
2024/01/18 06:59:54;;;;;;;13.30;9.40;;;3.40;99.90;;;;;;4935039;28;20090;-66
2024/01/18 07:02:20;;;;;;;13.05;8.52;;;3.40;99.90;;;;;;4927957;28;20127;-66
2024/01/18 07:04:45;;;;;;;12.75;8.57;;;3.40;99.90;;;;;;4932466;28;20027;-66
2024/01/18 07:07:11;;;;;;;10.93;7.45;;;3.40;99.90;;;;;;4925638;28;20055;-66
2024/01/18 07:09:37;;;;;;;22.77;18.65;;;3.40;99.90;;;;;;4933942;28;20035;-71
2024/01/18 07:12:03;;;;;;;10.75;7.38;;;3.40;99.90;;;;;;4936394;28;20047;-71
2024/01/18 07:14:30;;;;;;;9.88;7.63;;;3.40;99.90;;;;;;4927435;28;20035;-71
2024/01/18 07:16:56;;;;;;;10.75;7.82;;;3.40;99.90;;;;;;4932025;28;20039;-71
2024/01/18 07:19:21;;;;;;;8.88;6.20;;;3.40;99.90;;;;;;4933921;28;20046;-71
2024/01/18 07:21:47;;;;;;;10.50;8.10;;;3.40;99.90;;;;;;4927087;28;20038;-71
2024/01/18 07:24:12;;;;;;;10.55;8.57;;;3.50;99.90;;;;;;4935345;28;20496;-70
2024/01/18 07:26:39;;;;;;;26.20;20.90;;;3.50;99.90;;;;;;4935190;28;20119;-70
2024/01/18 07:29:05;;;;;;;11.38;8.48;;;3.40;99.90;;;;;;4919802;28;20515;-70
2024/01/18 07:31:30;;;;;;;11.88;7.32;;;3.40;99.90;;;;;;4931496;28;20040;-70
2024/01/18 07:33:56;;;;;;;9.75;7.45;;;3.40;99.90;;;;;;4925063;28;20032;-70
2024/01/18 07:36:21;;;;;;;9.27;6.55;;;3.40;99.90;;;;;;4937150;28;20518;-71
2024/01/18 07:38:47;;;;;;;8.93;6.43;;;3.30;99.90;;;;;;4936781;28;20043;-71
2024/01/18 07:41:12;;;;;;;9.63;7.50;;;3.30;99.90;;;;;;4938672;28;20190;-70
2024/01/18 07:43:39;;;;;;;9.65;6.88;;;3.30;99.90;;;;;;4933119;28;20043;-71
2024/01/18 07:46:05;;;;;;;11.82;7.68;;;3.30;99.90;;;;;;4949229;28;20031;-68
2024/01/18 07:48:31;;;;;;;9.13;7.03;;;3.40;99.90;;;;;;4927799;28;21432;-65
2024/01/18 07:50:56;;;;;;;10.60;7.07;;;3.40;99.90;;;;;;4933195;28;20359;-66
2024/01/18 07:53:23;;;;;;;11.38;7.43;;;3.40;99.90;;;;;;4936438;28;20488;-66
2024/01/18 07:55:49;;;;;;;9.13;6.50;;;3.40;99.90;;;;;;4935041;28;20027;-66
2024/01/18 07:58:14;;;;;;;9.80;7.50;;;3.40;99.90;;;;;;4935196;28;20042;-66
2024/01/18 08:00:41;;;;;;;9.75;6.82;;;3.40;99.90;;;;;;4938263;28;20019;-66
2024/01/18 08:03:07;;;;;;;9.80;6.90;;;3.50;99.90;;;;;;4914812;28;20031;-66
2024/01/18 08:05:32;;;;;;;10.85;7.75;;;3.50;99.90;;;;;;4927684;28;20042;-71
2024/01/18 08:07:58;;;;;;;10.60;7.38;;;3.50;99.90;;;;;;4933933;28;20433;-72
2024/01/18 08:10:24;;;;;;;11.90;7.53;;;3.50;99.90;;;;;;4930941;28;20062;-71
2024/01/18 08:12:52;;;;;;;10.88;7.35;;;3.50;99.90;;;;;;4935029;28;20137;-70
2024/01/18 08:15:18;;;;;;;11.75;8.00;;;3.50;99.90;;;;;;4935120;28;20047;-70
2024/01/18 08:17:43;;;;;;;11.70;8.50;;;3.40;99.90;;;;;;4933084;28;20023;-71
2024/01/18 08:20:18;;;;;;;9.93;7.55;;;3.30;99.90;;;;;;4936868;28;20137;-69
2024/01/18 08:22:44;;;;;;;10.80;7.63;;;3.30;99.90;;;;;;4936640;28;20027;-67
2024/01/18 08:25:13;;;;;;;9.80;7.13;;;3.20;99.90;;;;;;4938072;28;20024;-66
2024/01/18 08:27:43;;;;;;;12.05;8.38;;;3.30;99.90;;;;;;4921225;28;20039;-79
2024/01/18 08:30:09;;;;;;;18.60;10.48;;;3.30;99.90;;;;;;4926766;28;20046;-66
2024/01/18 08:32:35;;;;;;;11.43;9.20;;;3.40;99.90;;;;;;4933789;28;20045;-66
2024/01/18 08:35:06;;;;;;;13.82;8.23;;;3.40;99.90;;;;;;4937826;28;20040;-66
2024/01/18 08:37:35;;;;;;;9.95;7.22;;;3.50;99.90;;;;;;4934804;28;20037;-65
2024/01/18 08:40:02;;;;;;;10.95;7.45;;;3.50;99.90;;;;;;4937465;28;20127;-66
2024/01/18 08:42:27;;;;;;;9.93;7.40;;;3.50;99.90;;;;;;4933512;28;20032;-66
2024/01/18 08:44:53;;;;;;;10.57;7.85;;;3.60;99.90;;;;;;4934199;28;20581;-66
2024/01/18 08:47:19;;;;;;;9.68;7.10;;;3.60;99.90;;;;;;4928863;28;20051;-66
2024/01/18 08:49:44;;;;;;;8.70;6.78;;;3.60;99.90;;;;;;4917660;28;20097;-66
2024/01/18 08:52:10;;;;;;;11.40;7.90;;;3.60;99.90;;;;;;4933301;28;20908;-65
2024/01/18 08:54:36;;;;;;;14.38;9.57;;;3.60;99.90;;;;;;4932812;28;20043;-66
2024/01/18 08:57:02;;;;;;;11.90;8.23;;;3.60;99.90;;;;;;4931337;28;20187;-65
2024/01/18 08:59:27;;;;;;;10.77;7.55;;;3.60;99.90;;;;;;4931123;28;20054;-70
2024/01/18 09:01:54;;;;;;;8.80;7.25;;;3.70;99.90;;;;;;4936328;28;20058;-70
2024/01/18 09:04:20;;;;;;;8.65;7.10;;;3.70;99.90;;;;;;4934803;28;20023;-71
2024/01/18 09:06:46;;;;;;;8.57;6.68;;;3.70;99.90;;;;;;4930739;28;20755;-71
2024/01/18 09:09:13;;;;;;;8.77;6.97;;;3.80;99.90;;;;;;4933852;28;20547;-71
2024/01/18 09:11:39;;;;;;;9.98;7.18;;;3.80;99.90;;;;;;4936527;28;20142;-71
2024/01/18 09:14:05;;;;;;;8.05;6.55;;;3.80;99.90;;;;;;4935507;28;20066;-71
2024/01/18 09:16:31;;;;;;;9.93;7.28;;;3.80;99.90;;;;;;4932003;28;20046;-70
2024/01/18 09:18:58;;;;;;;12.32;8.52;;;3.80;99.90;;;;;;4930760;28;20023;-69
2024/01/18 09:21:24;;;;;;;14.23;11.48;;;3.80;99.90;;;;;;4931089;28;20035;-70
2024/01/18 09:23:50;;;;;;;35.75;24.92;;;3.80;99.90;;;;;;4914532;28;20035;-71
2024/01/18 09:26:16;;;;;;;26.70;20.00;;;3.90;99.90;;;;;;4920912;28;20034;-70
2024/01/18 09:28:42;;;;;;;24.88;19.55;;;3.90;99.90;;;;;;4922913;28;20039;-70
2024/01/18 09:31:09;;;;;;;38.33;25.73;;;4.00;99.90;;;;;;4903065;28;20031;-70
2024/01/18 09:33:36;;;;;;;17.65;13.95;;;4.00;99.90;;;;;;4929260;28;20031;-70
2024/01/18 09:36:02;;;;;;;16.92;12.57;;;4.10;99.90;;;;;;4925810;28;20047;-70
2024/01/18 09:38:29;;;;;;;17.63;13.45;;;4.10;99.90;;;;;;4929389;28;20035;-72
2024/01/18 09:41:01;;;;;;;18.55;13.80;;;4.10;99.90;;;;;;4931760;28;20043;-72
2024/01/18 09:43:27;;;;;;;;;;;4.20;99.90;;;;;;4934363;28;20035;-72
2024/01/18 09:45:55;;;;;;;7.15;5.68;;;4.20;99.90;;;;;;4931551;28;19952;-72
2024/01/18 09:48:22;;;;;;;6.18;5.22;;;4.20;99.90;;;;;;4932115;28;20031;-72
2024/01/18 09:50:49;;;;;;;6.07;5.20;;;4.20;99.90;;;;;;4935194;28;20033;-72
2024/01/18 09:53:15;;;;;;;6.95;5.38;;;4.20;99.90;;;;;;4928961;28;20143;-72
2024/01/18 09:55:41;;;;;;;7.45;5.38;;;4.30;99.90;;;;;;4921285;28;20048;-72
2024/01/18 09:58:12;;;;;;;7.97;5.78;;;4.30;99.90;;;;;;4929933;28;20019;-72
2024/01/18 10:00:46;;;;;;;9.23;6.68;;;4.30;99.90;;;;;;4932208;28;20046;-72
2024/01/18 10:03:11;;;;;;;9.52;7.63;;;4.40;99.90;;;;;;4935842;28;20633;-72
2024/01/18 10:05:37;;;;;;;10.07;8.75;;;4.40;99.90;;;;;;4936390;28;20041;-73
2024/01/18 10:08:03;;;;;;;10.02;8.52;;;4.50;99.90;;;;;;4935509;28;20050;-73
2024/01/18 10:10:29;;;;;;;11.20;8.10;;;4.50;99.90;;;;;;4919958;29;20126;-71
2024/01/18 10:12:55;;;;;;;14.27;10.93;;;4.60;99.90;;;;;;4933172;28;20031;-72
2024/01/18 10:15:32;;;;;;;10.63;8.10;;;4.50;99.90;;;;;;4928835;28;20043;-68
2024/01/18 10:17:59;;;;;;;13.40;10.13;;;4.50;99.90;;;;;;4936074;28;20271;-68
2024/01/18 10:20:26;;;;;;;11.10;7.10;;;4.60;99.90;;;;;;4935774;28;20019;-68
2024/01/18 10:22:53;;;;;;;4.82;4.07;;;4.70;99.90;;;;;;4929901;28;20031;-68
2024/01/18 10:25:30;;;;;;;4.53;3.85;;;4.70;99.90;;;;;;4930198;28;20071;-66
2024/01/18 10:27:56;;;;;;;9.68;8.02;;;4.80;99.90;;;;;;4932106;28;20491;-66
2024/01/18 10:30:23;;;;;;;10.30;7.38;;;4.80;99.90;;;;;;4931347;28;20524;-66
2024/01/18 10:32:50;;;;;;;9.07;6.80;;;4.80;99.90;;;;;;4937334;28;20023;-68
2024/01/18 10:35:28;;;;;;;6.05;4.60;;;4.90;99.90;;;;;;4937635;28;20043;-68
2024/01/18 10:38:04;;;;;;;4.18;3.60;;;4.90;99.90;;;;;;4933220;28;20034;-68
2024/01/18 10:40:33;;;;;;;2.67;1.98;;;4.90;99.90;;;;;;4929461;28;20035;-68
2024/01/18 10:43:00;;;;;;;2.25;2.05;;;5.00;99.90;;;;;;4932109;28;20046;-68
2024/01/18 10:45:29;;;;;;;1.90;1.70;;;5.00;99.90;;;;;;4927855;28;20312;-68
2024/01/18 10:47:56;;;;;;;2.90;2.60;;;5.10;99.90;;;;;;4930860;28;20027;-68
2024/01/18 10:50:22;;;;;;;3.03;2.67;;;5.20;99.90;;;;;;4928932;28;20023;-68
2024/01/18 10:52:48;;;;;;;2.20;2.00;;;5.30;99.90;;;;;;4936588;28;20036;-68
2024/01/18 10:55:20;;;;;;;3.17;2.75;;;5.40;99.90;;;;;;4907752;28;22163;-68
2024/01/18 10:57:46;;;;;;;;;;;5.40;99.90;;;;;;4916043;28;20027;-70
2024/01/18 11:00:15;;;;;;;1.83;1.60;;;5.50;99.90;;;;;;4929886;28;20279;-68
2024/01/18 11:02:44;;;;;;;3.60;2.13;;;5.50;99.90;;;;;;4923945;28;20043;-69
2024/01/18 11:05:10;;;;;;;2.35;2.10;;;5.60;99.90;;;;;;4918571;28;20047;-70
2024/01/18 11:07:41;;;;;;;2.20;2.00;;;5.60;99.90;;;;;;4936368;28;20051;-71
2024/01/18 11:10:12;;;;;;;112.65;62.50;;;5.60;99.90;;;;;;4935972;28;20036;-71
2024/01/18 11:12:49;;;;;;;116.00;57.17;;;5.70;99.90;;;;;;4923375;28;20094;-71
2024/01/18 11:15:18;;;;;;;24.70;14.05;;;5.60;99.90;;;;;;4932746;28;20043;-67
2024/01/18 11:17:48;;;;;;;18.27;10.95;;;5.60;99.90;;;;;;4934360;28;20055;-68
2024/01/18 11:20:14;;;;;;;127.93;82.90;;;5.60;99.90;;;;;;4933361;28;20027;-70
2024/01/18 11:22:40;;;;;;;52.40;38.40;;;5.60;99.90;;;;;;4939996;28;20531;-70
2024/01/18 11:25:09;;;;;;;7.20;6.07;;;5.40;99.90;;;;;;4933930;28;20047;-69
2024/01/18 11:27:39;;;;;;;19.63;13.90;;;5.40;99.90;;;;;;4932273;28;20446;-70
2024/01/18 11:30:06;;;;;;;9.52;7.43;;;5.30;99.90;;;;;;4934931;28;20039;-70
2024/01/18 11:32:33;;;;;;;18.75;12.75;;;5.10;99.90;;;;;;4935971;28;20043;-70
2024/01/18 11:35:14;;;;;;;39.67;28.00;;;5.20;99.90;;;;;;4936360;28;20055;-70
2024/01/18 11:37:40;;;;;;;9.87;8.30;;;5.20;99.90;;;;;;4933950;28;20077;-70
2024/01/18 11:40:10;;;;;;;7.40;6.65;;;5.10;99.90;;;;;;4936072;28;20282;-70
2024/01/18 11:42:40;;;;;;;3.30;2.70;;;5.20;99.90;;;;;;4936727;28;20047;-70
2024/01/18 11:45:19;;;;;;;2.70;2.50;;;5.30;99.90;;;;;;4933211;28;20035;-70
2024/01/18 11:47:46;;;;;;;5.80;5.10;;;5.40;99.90;;;;;;4939867;28;20086;-71
2024/01/18 11:50:12;;;;;;;3.78;2.83;;;5.50;99.90;;;;;;4935787;28;20028;-70
2024/01/18 11:52:41;;;;;;;3.95;3.60;;;5.50;99.90;;;;;;4933973;28;20558;-70
2024/01/18 11:55:08;;;;;;;2.60;2.40;;;5.60;99.90;;;;;;4931999;28;20051;-70
2024/01/18 11:57:33;;;;;;;2.75;2.50;;;5.60;99.90;;;;;;4934152;28;20993;-70
2024/01/18 12:00:00;;;;;;;2.78;2.58;;;5.70;99.90;;;;;;4934222;28;20027;-70
2024/01/18 12:02:28;;;;;;;2.80;2.50;;;5.70;99.90;;;;;;4928800;28;20024;-70
2024/01/18 12:04:55;;;;;;;2.92;2.70;;;5.70;99.90;;;;;;4933360;28;20027;-70
2024/01/18 12:07:23;;;;;;;3.55;3.08;;;5.80;99.90;;;;;;4928725;28;20054;-70
2024/01/18 12:09:48;;;;;;;3.30;2.63;;;5.80;99.90;;;;;;4932444;28;20587;-70
2024/01/18 12:12:15;;;;;;;3.17;2.88;;;5.80;99.90;;;;;;4927165;28;20546;-70
2024/01/18 12:14:42;;;;;;;6.55;5.82;;;5.80;99.90;;;;;;4932124;28;20059;-70
2024/01/18 12:17:12;;;;;;;3.08;2.63;;;5.80;99.90;;;;;;4935780;28;20062;-70
2024/01/18 12:19:39;;;;;;;4.10;3.80;;;5.80;99.90;;;;;;4929049;28;20030;-70
2024/01/18 12:22:08;;;;;;;3.30;2.65;;;5.80;99.90;;;;;;4937992;28;20780;-70
2024/01/18 12:24:33;;;;;;;3.00;2.70;;;5.80;99.90;;;;;;4937383;28;20089;-70
2024/01/18 12:26:59;;;;;;;11.65;10.30;;;5.80;99.90;;;;;;4938242;28;20043;-70
2024/01/18 12:29:27;;;;;;;5.85;5.13;;;5.80;99.90;;;;;;4940100;28;20035;-70
2024/01/18 12:31:52;;;;;;;4.28;3.88;;;5.90;99.90;;;;;;4940981;28;20038;-69
2024/01/18 12:34:22;;;;;;;6.97;6.28;;;5.90;99.90;;;;;;4924612;29;20341;-68
2024/01/18 12:36:48;;;;;;;6.80;6.05;;;5.90;99.90;;;;;;4940205;28;20035;-68
2024/01/18 12:39:17;;;;;;;29.05;17.38;;;5.90;99.90;;;;;;4939466;28;20090;-68